Union Chapel, Texas
Current Conditions -  °F | °C
As of 9:53 AM on Friday 19 Dec 2014 (Local Time) from KTXK Reporting Station
Light Rain Light Rain  
Wind Chill: 39°   Ceiling: 600
Heat Index: 43°   Visibility: 4mi
Dew Point: 41°   Wind: 6mph
Humidity: 93%   Direction: 90°E
Pressure: 30.26"   Gusts: NA
Location:  33.1865°N, 94.3585°W
Report Text: KTXK 191553Z 09005KT 4SM -RA BR OVC006 06/05 A3026 RMK AO2 RAB35 SLP248 P0000 T00610050
Loading
Personal Weather Stations






























Interactive Weather Map New forecast layout! Learn more

10-Day Weather Forecast

Advertisements
Track Severe Weather on mobile